sensor_id;sensor_type;location;lat;lon;timestamp;P1;durP1;ratioP1;P2;durP2;ratioP2
18334;SDS011;9293;49.524;10.964;2023-11-19T00:00:57;5.57;;;4.30;;
18334;SDS011;9293;49.524;10.964;2023-11-19T00:03:25;5.22;;;4.05;;
18334;SDS011;9293;49.524;10.964;2023-11-19T00:05:53;5.18;;;4.40;;
18334;SDS011;9293;49.524;10.964;2023-11-19T00:08:21;5.90;;;4.57;;
18334;SDS011;9293;49.524;10.964;2023-11-19T00:10:52;5.77;;;4.70;;
18334;SDS011;9293;49.524;10.964;2023-11-19T00:13:20;4.68;;;3.97;;
18334;SDS011;9293;49.524;10.964;2023-11-19T00:15:48;6.22;;;4.65;;
18334;SDS011;9293;49.524;10.964;2023-11-19T00:18:17;4.60;;;4.18;;
18334;SDS011;9293;49.524;10.964;2023-11-19T00:20:45;4.78;;;4.28;;
18334;SDS011;9293;49.524;10.964;2023-11-19T00:23:13;4.70;;;4.22;;
18334;SDS011;9293;49.524;10.964;2023-11-19T00:25:42;5.35;;;4.22;;
18334;SDS011;9293;49.524;10.964;2023-11-19T00:28:10;5.90;;;4.40;;
18334;SDS011;9293;49.524;10.964;2023-11-19T00:30:39;5.10;;;4.53;;
18334;SDS011;9293;49.524;10.964;2023-11-19T00:33:08;4.93;;;4.47;;
18334;SDS011;9293;49.524;10.964;2023-11-19T00:35:37;5.43;;;4.57;;
18334;SDS011;9293;49.524;10.964;2023-11-19T00:38:05;5.22;;;4.72;;
18334;SDS011;9293;49.524;10.964;2023-11-19T00:40:34;6.05;;;5.43;;
18334;SDS011;9293;49.524;10.964;2023-11-19T00:43:02;5.10;;;4.60;;
18334;SDS011;9293;49.524;10.964;2023-11-19T00:45:31;5.30;;;4.80;;
18334;SDS011;9293;49.524;10.964;2023-11-19T00:47:59;6.32;;;5.18;;
18334;SDS011;9293;49.524;10.964;2023-11-19T00:50:27;6.20;;;4.90;;
18334;SDS011;9293;49.524;10.964;2023-11-19T00:52:59;8.50;;;4.95;;
18334;SDS011;9293;49.524;10.964;2023-11-19T00:55:33;5.90;;;5.10;;
18334;SDS011;9293;49.524;10.964;2023-11-19T00:58:12;8.55;;;5.50;;
18334;SDS011;9293;49.524;10.964;2023-11-19T01:00:40;5.53;;;4.95;;
18334;SDS011;9293;49.524;10.964;2023-11-19T01:03:10;6.57;;;5.45;;
18334;SDS011;9293;49.524;10.964;2023-11-19T01:05:39;7.45;;;5.50;;
18334;SDS011;9293;49.524;10.964;2023-11-19T01:08:07;6.25;;;5.50;;
18334;SDS011;9293;49.524;10.964;2023-11-19T01:10:37;6.45;;;5.75;;
18334;SDS011;9293;49.524;10.964;2023-11-19T01:13:05;6.70;;;6.00;;
18334;SDS011;9293;49.524;10.964;2023-11-19T01:15:33;5.55;;;5.05;;
18334;SDS011;9293;49.524;10.964;2023-11-19T01:18:01;5.95;;;5.35;;
18334;SDS011;9293;49.524;10.964;2023-11-19T01:20:32;8.20;;;7.35;;
18334;SDS011;9293;49.524;10.964;2023-11-19T01:23:01;7.22;;;6.45;;
18334;SDS011;9293;49.524;10.964;2023-11-19T01:25:30;6.15;;;5.18;;
18334;SDS011;9293;49.524;10.964;2023-11-19T01:27:58;6.15;;;5.50;;
18334;SDS011;9293;49.524;10.964;2023-11-19T01:30:27;6.47;;;5.88;;
18334;SDS011;9293;49.524;10.964;2023-11-19T01:32:55;5.45;;;4.95;;
18334;SDS011;9293;49.524;10.964;2023-11-19T01:35:23;7.07;;;5.70;;
18334;SDS011;9293;49.524;10.964;2023-11-19T01:37:53;5.80;;;5.20;;
18334;SDS011;9293;49.524;10.964;2023-11-19T01:40:21;8.25;;;6.10;;
18334;SDS011;9293;49.524;10.964;2023-11-19T01:42:50;6.55;;;5.95;;
18334;SDS011;9293;49.524;10.964;2023-11-19T01:45:22;6.28;;;5.68;;
18334;SDS011;9293;49.524;10.964;2023-11-19T01:48:00;6.93;;;5.68;;
18334;SDS011;9293;49.524;10.964;2023-11-19T01:50:34;5.72;;;5.15;;
18334;SDS011;9293;49.524;10.964;2023-11-19T01:53:06;6.43;;;5.57;;
18334;SDS011;9293;49.524;10.964;2023-11-19T01:55:37;6.05;;;5.50;;
18334;SDS011;9293;49.524;10.964;2023-11-19T01:58:09;6.70;;;5.78;;
18334;SDS011;9293;49.524;10.964;2023-11-19T02:00:37;6.05;;;5.45;;
18334;SDS011;9293;49.524;10.964;2023-11-19T02:03:06;6.78;;;5.68;;
18334;SDS011;9293;49.524;10.964;2023-11-19T02:05:36;6.15;;;5.50;;
18334;SDS011;9293;49.524;10.964;2023-11-19T02:08:05;8.65;;;5.40;;
18334;SDS011;9293;49.524;10.964;2023-11-19T02:10:34;6.43;;;5.57;;
18334;SDS011;9293;49.524;10.964;2023-11-19T02:13:02;6.00;;;5.40;;
18334;SDS011;9293;49.524;10.964;2023-11-19T02:15:34;6.20;;;5.60;;
18334;SDS011;9293;49.524;10.964;2023-11-19T02:18:21;6.03;;;5.38;;
18334;SDS011;9293;49.524;10.964;2023-11-19T02:20:51;6.00;;;5.32;;
18334;SDS011;9293;49.524;10.964;2023-11-19T02:23:20;6.50;;;5.90;;
18334;SDS011;9293;49.524;10.964;2023-11-19T02:25:55;5.57;;;5.07;;
18334;SDS011;9293;49.524;10.964;2023-11-19T02:28:47;6.82;;;5.85;;
18334;SDS011;9293;49.524;10.964;2023-11-19T02:31:15;6.10;;;5.30;;
18334;SDS011;9293;49.524;10.964;2023-11-19T02:33:44;7.78;;;5.68;;
18334;SDS011;9293;49.524;10.964;2023-11-19T02:36:12;7.25;;;5.70;;
18334;SDS011;9293;49.524;10.964;2023-11-19T02:38:40;7.25;;;6.43;;
18334;SDS011;9293;49.524;10.964;2023-11-19T02:41:08;6.82;;;6.13;;
18334;SDS011;9293;49.524;10.964;2023-11-19T02:43:37;7.20;;;6.50;;
18334;SDS011;9293;49.524;10.964;2023-11-19T02:46:06;7.35;;;6.50;;
18334;SDS011;9293;49.524;10.964;2023-11-19T02:48:37;6.57;;;5.75;;
18334;SDS011;9293;49.524;10.964;2023-11-19T02:51:06;7.35;;;5.78;;
18334;SDS011;9293;49.524;10.964;2023-11-19T02:56:07;6.75;;;5.80;;
18334;SDS011;9293;49.524;10.964;2023-11-19T02:58:54;6.78;;;5.95;;
18334;SDS011;9293;49.524;10.964;2023-11-19T03:01:23;7.90;;;5.35;;
18334;SDS011;9293;49.524;10.964;2023-11-19T03:03:58;6.53;;;5.63;;
18334;SDS011;9293;49.524;10.964;2023-11-19T03:06:30;6.93;;;5.75;;
18334;SDS011;9293;49.524;10.964;2023-11-19T03:08:58;7.20;;;6.07;;
18334;SDS011;9293;49.524;10.964;2023-11-19T03:11:32;8.52;;;6.63;;
18334;SDS011;9293;49.524;10.964;2023-11-19T03:14:03;6.88;;;6.18;;
18334;SDS011;9293;49.524;10.964;2023-11-19T03:16:31;6.55;;;5.85;;
18334;SDS011;9293;49.524;10.964;2023-11-19T03:19:00;6.75;;;6.07;;
18334;SDS011;9293;49.524;10.964;2023-11-19T03:21:28;6.68;;;6.03;;
18334;SDS011;9293;49.524;10.964;2023-11-19T03:23:57;7.47;;;6.30;;
18334;SDS011;9293;49.524;10.964;2023-11-19T03:26:28;6.90;;;6.15;;
18334;SDS011;9293;49.524;10.964;2023-11-19T03:28:57;7.95;;;7.15;;
18334;SDS011;9293;49.524;10.964;2023-11-19T03:31:25;7.88;;;7.03;;
18334;SDS011;9293;49.524;10.964;2023-11-19T03:33:53;8.85;;;6.88;;
18334;SDS011;9293;49.524;10.964;2023-11-19T03:38:53;8.68;;;7.20;;
18334;SDS011;9293;49.524;10.964;2023-11-19T03:41:21;9.57;;;7.05;;
18334;SDS011;9293;49.524;10.964;2023-11-19T03:43:49;9.45;;;7.80;;
18334;SDS011;9293;49.524;10.964;2023-11-19T03:46:21;9.25;;;7.50;;
18334;SDS011;9293;49.524;10.964;2023-11-19T03:48:50;9.27;;;8.13;;
18334;SDS011;9293;49.524;10.964;2023-11-19T03:51:18;11.65;;;9.18;;
18334;SDS011;9293;49.524;10.964;2023-11-19T03:53:46;9.45;;;8.27;;
18334;SDS011;9293;49.524;10.964;2023-11-19T03:56:14;8.88;;;7.97;;
18334;SDS011;9293;49.524;10.964;2023-11-19T03:58:43;10.80;;;8.45;;
18334;SDS011;9293;49.524;10.964;2023-11-19T04:01:11;10.05;;;8.40;;
18334;SDS011;9293;49.524;10.964;2023-11-19T04:03:41;9.63;;;8.63;;
18334;SDS011;9293;49.524;10.964;2023-11-19T04:06:12;10.05;;;8.68;;
18334;SDS011;9293;49.524;10.964;2023-11-19T04:08:40;10.57;;;8.75;;
18334;SDS011;9293;49.524;10.964;2023-11-19T04:11:09;10.70;;;8.77;;
18334;SDS011;9293;49.524;10.964;2023-11-19T04:13:37;11.40;;;9.38;;
18334;SDS011;9293;49.524;10.964;2023-11-19T04:16:05;10.35;;;9.30;;
18334;SDS011;9293;49.524;10.964;2023-11-19T04:18:34;12.27;;;9.77;;
18334;SDS011;9293;49.524;10.964;2023-11-19T04:21:05;12.05;;;10.18;;
18334;SDS011;9293;49.524;10.964;2023-11-19T04:23:34;10.85;;;9.65;;
18334;SDS011;9293;49.524;10.964;2023-11-19T04:26:03;13.32;;;9.98;;
18334;SDS011;9293;49.524;10.964;2023-11-19T04:28:35;11.20;;;10.00;;
18334;SDS011;9293;49.524;10.964;2023-11-19T04:31:03;11.40;;;9.52;;
18334;SDS011;9293;49.524;10.964;2023-11-19T04:33:32;11.70;;;10.07;;
18334;SDS011;9293;49.524;10.964;2023-11-19T04:36:05;12.85;;;9.98;;
18334;SDS011;9293;49.524;10.964;2023-11-19T04:38:37;12.75;;;11.35;;
18334;SDS011;9293;49.524;10.964;2023-11-19T04:41:09;11.80;;;10.02;;
18334;SDS011;9293;49.524;10.964;2023-11-19T04:43:37;10.95;;;9.85;;
18334;SDS011;9293;49.524;10.964;2023-11-19T04:46:06;11.20;;;9.38;;
18334;SDS011;9293;49.524;10.964;2023-11-19T04:48:34;11.85;;;9.55;;
18334;SDS011;9293;49.524;10.964;2023-11-19T04:51:05;11.60;;;9.35;;
18334;SDS011;9293;49.524;10.964;2023-11-19T04:53:34;10.55;;;9.45;;
18334;SDS011;9293;49.524;10.964;2023-11-19T04:56:07;10.90;;;9.13;;
18334;SDS011;9293;49.524;10.964;2023-11-19T04:58:39;10.77;;;9.30;;
18334;SDS011;9293;49.524;10.964;2023-11-19T05:01:13;12.48;;;8.95;;
18334;SDS011;9293;49.524;10.964;2023-11-19T05:03:43;13.80;;;9.68;;
18334;SDS011;9293;49.524;10.964;2023-11-19T05:06:13;10.70;;;9.40;;
18334;SDS011;9293;49.524;10.964;2023-11-19T05:08:41;11.63;;;9.88;;
18334;SDS011;9293;49.524;10.964;2023-11-19T05:11:09;10.52;;;8.73;;
18334;SDS011;9293;49.524;10.964;2023-11-19T05:13:39;11.15;;;9.52;;
18334;SDS011;9293;49.524;10.964;2023-11-19T05:16:08;10.82;;;9.70;;
18334;SDS011;9293;49.524;10.964;2023-11-19T05:18:37;11.80;;;10.15;;
18334;SDS011;9293;49.524;10.964;2023-11-19T05:21:09;11.93;;;10.35;;
18334;SDS011;9293;49.524;10.964;2023-11-19T05:23:37;12.35;;;10.00;;
18334;SDS011;9293;49.524;10.964;2023-11-19T05:26:06;16.95;;;14.77;;
18334;SDS011;9293;49.524;10.964;2023-11-19T05:28:35;12.60;;;10.25;;
18334;SDS011;9293;49.524;10.964;2023-11-19T05:31:05;12.57;;;9.77;;
18334;SDS011;9293;49.524;10.964;2023-11-19T05:33:36;11.95;;;9.77;;
18334;SDS011;9293;49.524;10.964;2023-11-19T05:36:05;14.65;;;10.95;;
18334;SDS011;9293;49.524;10.964;2023-11-19T05:38:38;12.32;;;9.88;;
18334;SDS011;9293;49.524;10.964;2023-11-19T05:43:35;11.55;;;9.68;;
18334;SDS011;9293;49.524;10.964;2023-11-19T05:46:03;12.23;;;10.55;;
18334;SDS011;9293;49.524;10.964;2023-11-19T05:48:45;12.32;;;10.25;;
18334;SDS011;9293;49.524;10.964;2023-11-19T05:51:14;13.50;;;11.30;;
18334;SDS011;9293;49.524;10.964;2023-11-19T05:53:43;13.15;;;10.10;;
18334;SDS011;9293;49.524;10.964;2023-11-19T05:56:13;12.95;;;10.23;;
18334;SDS011;9293;49.524;10.964;2023-11-19T05:58:43;13.15;;;11.27;;
18334;SDS011;9293;49.524;10.964;2023-11-19T06:01:12;12.68;;;10.98;;
18334;SDS011;9293;49.524;10.964;2023-11-19T06:03:40;12.50;;;10.90;;
18334;SDS011;9293;49.524;10.964;2023-11-19T06:06:11;14.15;;;11.85;;
18334;SDS011;9293;49.524;10.964;2023-11-19T06:08:39;15.35;;;11.40;;
18334;SDS011;9293;49.524;10.964;2023-11-19T06:11:09;14.00;;;11.80;;
18334;SDS011;9293;49.524;10.964;2023-11-19T06:13:42;17.92;;;12.07;;
18334;SDS011;9293;49.524;10.964;2023-11-19T06:16:10;14.05;;;11.65;;
18334;SDS011;9293;49.524;10.964;2023-11-19T06:18:40;12.93;;;11.10;;
18334;SDS011;9293;49.524;10.964;2023-11-19T06:21:09;14.85;;;12.23;;
18334;SDS011;9293;49.524;10.964;2023-11-19T06:23:38;15.35;;;11.93;;
18334;SDS011;9293;49.524;10.964;2023-11-19T06:26:07;15.77;;;12.18;;
18334;SDS011;9293;49.524;10.964;2023-11-19T06:28:36;14.05;;;11.90;;
18334;SDS011;9293;49.524;10.964;2023-11-19T06:31:05;12.85;;;11.43;;
18334;SDS011;9293;49.524;10.964;2023-11-19T06:33:33;20.33;;;17.35;;
18334;SDS011;9293;49.524;10.964;2023-11-19T06:36:02;16.95;;;13.18;;
18334;SDS011;9293;49.524;10.964;2023-11-19T06:38:31;14.48;;;11.75;;
18334;SDS011;9293;49.524;10.964;2023-11-19T06:41:08;14.75;;;10.82;;
18334;SDS011;9293;49.524;10.964;2023-11-19T06:43:39;14.93;;;11.75;;
18334;SDS011;9293;49.524;10.964;2023-11-19T06:46:18;13.68;;;11.60;;
18334;SDS011;9293;49.524;10.964;2023-11-19T06:48:47;15.50;;;11.52;;
18334;SDS011;9293;49.524;10.964;2023-11-19T06:51:15;13.68;;;10.57;;
18334;SDS011;9293;49.524;10.964;2023-11-19T06:53:44;13.65;;;10.70;;
18334;SDS011;9293;49.524;10.964;2023-11-19T06:56:20;13.50;;;11.18;;
18334;SDS011;9293;49.524;10.964;2023-11-19T06:58:49;16.25;;;11.82;;
18334;SDS011;9293;49.524;10.964;2023-11-19T07:01:18;13.63;;;10.85;;
18334;SDS011;9293;49.524;10.964;2023-11-19T07:03:47;16.30;;;11.75;;
18334;SDS011;9293;49.524;10.964;2023-11-19T07:06:16;15.05;;;11.52;;
18334;SDS011;9293;49.524;10.964;2023-11-19T07:08:44;14.60;;;10.65;;
18334;SDS011;9293;49.524;10.964;2023-11-19T07:11:13;12.68;;;10.82;;
18334;SDS011;9293;49.524;10.964;2023-11-19T07:13:43;17.67;;;12.43;;
18334;SDS011;9293;49.524;10.964;2023-11-19T07:16:14;14.25;;;12.23;;
18334;SDS011;9293;49.524;10.964;2023-11-19T07:18:42;19.67;;;13.38;;
18334;SDS011;9293;49.524;10.964;2023-11-19T07:21:11;18.05;;;12.88;;
18334;SDS011;9293;49.524;10.964;2023-11-19T07:23:39;19.23;;;13.20;;
18334;SDS011;9293;49.524;10.964;2023-11-19T07:26:09;9.68;;;7.05;;
18334;SDS011;9293;49.524;10.964;2023-11-19T07:28:37;5.72;;;4.28;;
18334;SDS011;9293;49.524;10.964;2023-11-19T07:31:07;5.93;;;3.50;;
18334;SDS011;9293;49.524;10.964;2023-11-19T07:33:36;10.32;;;5.50;;
18334;SDS011;9293;49.524;10.964;2023-11-19T07:36:04;3.63;;;1.70;;
18334;SDS011;9293;49.524;10.964;2023-11-19T07:41:12;1.85;;;1.10;;
18334;SDS011;9293;49.524;10.964;2023-11-19T07:43:42;1.92;;;0.90;;
18334;SDS011;9293;49.524;10.964;2023-11-19T07:46:12;1.05;;;0.68;;
18334;SDS011;9293;49.524;10.964;2023-11-19T07:48:41;0.80;;;0.60;;
18334;SDS011;9293;49.524;10.964;2023-11-19T07:51:10;1.88;;;0.60;;
18334;SDS011;9293;49.524;10.964;2023-11-19T07:53:40;1.38;;;0.98;;
18334;SDS011;9293;49.524;10.964;2023-11-19T07:56:08;1.38;;;0.50;;
18334;SDS011;9293;49.524;10.964;2023-11-19T07:58:38;0.65;;;0.50;;
18334;SDS011;9293;49.524;10.964;2023-11-19T08:01:06;0.70;;;0.60;;
18334;SDS011;9293;49.524;10.964;2023-11-19T08:03:34;1.02;;;0.55;;
18334;SDS011;9293;49.524;10.964;2023-11-19T08:06:03;2.90;;;0.55;;
18334;SDS011;9293;49.524;10.964;2023-11-19T08:08:32;2.85;;;0.70;;
18334;SDS011;9293;49.524;10.964;2023-11-19T08:11:02;0.80;;;0.63;;
18334;SDS011;9293;49.524;10.964;2023-11-19T08:13:30;1.48;;;0.65;;
18334;SDS011;9293;49.524;10.964;2023-11-19T08:15:59;3.42;;;0.85;;
18334;SDS011;9293;49.524;10.964;2023-11-19T08:18:27;1.00;;;0.88;;
18334;SDS011;9293;49.524;10.964;2023-11-19T08:20:56;1.45;;;0.75;;
18334;SDS011;9293;49.524;10.964;2023-11-19T08:23:25;1.00;;;0.80;;
18334;SDS011;9293;49.524;10.964;2023-11-19T08:25:56;1.57;;;0.80;;
18334;SDS011;9293;49.524;10.964;2023-11-19T08:28:27;1.17;;;0.70;;
18334;SDS011;9293;49.524;10.964;2023-11-19T08:30:55;3.05;;;0.70;;
18334;SDS011;9293;49.524;10.964;2023-11-19T08:33:23;2.10;;;0.80;;
18334;SDS011;9293;49.524;10.964;2023-11-19T08:35:52;1.02;;;0.80;;
18334;SDS011;9293;49.524;10.964;2023-11-19T08:38:21;2.33;;;1.85;;
18334;SDS011;9293;49.524;10.964;2023-11-19T08:40:52;2.80;;;1.70;;
18334;SDS011;9293;49.524;10.964;2023-11-19T08:43:20;5.70;;;1.10;;
18334;SDS011;9293;49.524;10.964;2023-11-19T08:45:51;1.83;;;1.10;;
18334;SDS011;9293;49.524;10.964;2023-11-19T08:48:22;1.52;;;1.00;;
18334;SDS011;9293;49.524;10.964;2023-11-19T08:50:53;1.85;;;0.82;;
18334;SDS011;9293;49.524;10.964;2023-11-19T08:55:51;2.85;;;0.90;;
18334;SDS011;9293;49.524;10.964;2023-11-19T08:58:20;1.85;;;0.80;;
18334;SDS011;9293;49.524;10.964;2023-11-19T09:00:49;2.00;;;0.70;;
18334;SDS011;9293;49.524;10.964;2023-11-19T09:03:18;1.75;;;0.80;;
18334;SDS011;9293;49.524;10.964;2023-11-19T09:05:48;1.00;;;0.70;;
18334;SDS011;9293;49.524;10.964;2023-11-19T09:08:16;1.23;;;0.85;;
18334;SDS011;9293;49.524;10.964;2023-11-19T09:10:45;0.95;;;0.60;;
18334;SDS011;9293;49.524;10.964;2023-11-19T09:13:17;2.00;;;0.52;;
18334;SDS011;9293;49.524;10.964;2023-11-19T09:15:45;2.08;;;0.80;;
18334;SDS011;9293;49.524;10.964;2023-11-19T09:18:13;4.60;;;0.90;;
18334;SDS011;9293;49.524;10.964;2023-11-19T09:20:42;1.45;;;0.50;;
18334;SDS011;9293;49.524;10.964;2023-11-19T09:23:11;0.90;;;0.60;;
18334;SDS011;9293;49.524;10.964;2023-11-19T09:25:40;1.45;;;0.60;;
18334;SDS011;9293;49.524;10.964;2023-11-19T09:28:11;1.30;;;0.73;;
18334;SDS011;9293;49.524;10.964;2023-11-19T09:30:40;1.48;;;0.50;;
18334;SDS011;9293;49.524;10.964;2023-11-19T09:33:09;2.10;;;0.60;;
18334;SDS011;9293;49.524;10.964;2023-11-19T09:35:38;4.88;;;0.68;;
18334;SDS011;9293;49.524;10.964;2023-11-19T09:38:09;0.90;;;0.50;;
18334;SDS011;9293;49.524;10.964;2023-11-19T09:40:40;2.05;;;0.45;;
18334;SDS011;9293;49.524;10.964;2023-11-19T09:43:08;2.53;;;0.50;;
18334;SDS011;9293;49.524;10.964;2023-11-19T09:45:58;2.97;;;0.43;;
18334;SDS011;9293;49.524;10.964;2023-11-19T09:48:35;1.00;;;0.47;;
18334;SDS011;9293;49.524;10.964;2023-11-19T09:51:10;3.80;;;0.50;;
18334;SDS011;9293;49.524;10.964;2023-11-19T09:53:39;2.28;;;0.50;;
18334;SDS011;9293;49.524;10.964;2023-11-19T09:56:08;3.22;;;0.50;;
18334;SDS011;9293;49.524;10.964;2023-11-19T10:01:08;3.25;;;0.47;;
18334;SDS011;9293;49.524;10.964;2023-11-19T10:03:42;2.08;;;0.60;;
18334;SDS011;9293;49.524;10.964;2023-11-19T10:06:15;0.73;;;0.40;;
18334;SDS011;9293;49.524;10.964;2023-11-19T10:08:46;3.65;;;0.60;;
18334;SDS011;9293;49.524;10.964;2023-11-19T10:11:14;2.58;;;0.60;;
18334;SDS011;9293;49.524;10.964;2023-11-19T10:13:44;1.42;;;0.40;;
18334;SDS011;9293;49.524;10.964;2023-11-19T10:18:48;2.55;;;0.70;;
18334;SDS011;9293;49.524;10.964;2023-11-19T10:21:18;1.85;;;0.40;;
18334;SDS011;9293;49.524;10.964;2023-11-19T10:23:56;2.00;;;0.60;;
18334;SDS011;9293;49.524;10.964;2023-11-19T10:26:28;6.28;;;1.38;;
18334;SDS011;9293;49.524;10.964;2023-11-19T10:28:59;2.17;;;0.60;;
18334;SDS011;9293;49.524;10.964;2023-11-19T10:31:29;2.28;;;0.60;;
18334;SDS011;9293;49.524;10.964;2023-11-19T10:33:57;1.55;;;0.40;;
18334;SDS011;9293;49.524;10.964;2023-11-19T10:36:46;1.75;;;0.60;;
18334;SDS011;9293;49.524;10.964;2023-11-19T10:39:14;2.40;;;0.50;;
18334;SDS011;9293;49.524;10.964;2023-11-19T10:41:43;3.42;;;0.88;;
18334;SDS011;9293;49.524;10.964;2023-11-19T10:44:12;1.27;;;0.82;;
18334;SDS011;9293;49.524;10.964;2023-11-19T10:46:59;1.23;;;0.50;;
18334;SDS011;9293;49.524;10.964;2023-11-19T10:49:27;1.50;;;0.47;;
18334;SDS011;9293;49.524;10.964;2023-11-19T10:51:55;1.73;;;0.80;;
18334;SDS011;9293;49.524;10.964;2023-11-19T10:54:25;1.98;;;0.52;;
18334;SDS011;9293;49.524;10.964;2023-11-19T10:56:58;1.05;;;0.60;;
18334;SDS011;9293;49.524;10.964;2023-11-19T10:59:46;1.45;;;0.47;;
18334;SDS011;9293;49.524;10.964;2023-11-19T11:02:16;1.75;;;0.50;;
18334;SDS011;9293;49.524;10.964;2023-11-19T11:04:49;1.70;;;0.35;;
18334;SDS011;9293;49.524;10.964;2023-11-19T11:07:19;1.77;;;0.40;;
18334;SDS011;9293;49.524;10.964;2023-11-19T11:10:02;0.77;;;0.32;;
18334;SDS011;9293;49.524;10.964;2023-11-19T11:12:34;1.48;;;0.50;;
18334;SDS011;9293;49.524;10.964;2023-11-19T11:15:05;2.08;;;0.63;;
18334;SDS011;9293;49.524;10.964;2023-11-19T11:17:34;0.77;;;0.50;;
18334;SDS011;9293;49.524;10.964;2023-11-19T11:20:07;1.30;;;0.47;;
18334;SDS011;9293;49.524;10.964;2023-11-19T11:22:47;1.65;;;0.40;;
18334;SDS011;9293;49.524;10.964;2023-11-19T11:34:05;4.45;;;0.40;;
18334;SDS011;9293;49.524;10.964;2023-11-19T11:37:13;1.27;;;0.50;;
18334;SDS011;9293;49.524;10.964;2023-11-19T11:39:46;2.77;;;0.60;;
18334;SDS011;9293;49.524;10.964;2023-11-19T11:50:11;1.00;;;0.50;;
18334;SDS011;9293;49.524;10.964;2023-11-19T11:53:13;2.75;;;0.88;;
18334;SDS011;9293;49.524;10.964;2023-11-19T11:58:25;1.98;;;0.60;;
18334;SDS011;9293;49.524;10.964;2023-11-19T12:00:54;3.33;;;0.47;;
18334;SDS011;9293;49.524;10.964;2023-11-19T12:03:27;2.05;;;0.60;;
18334;SDS011;9293;49.524;10.964;2023-11-19T12:05:57;2.05;;;0.63;;
18334;SDS011;9293;49.524;10.964;2023-11-19T12:08:27;2.70;;;0.65;;
18334;SDS011;9293;49.524;10.964;2023-11-19T12:10:57;3.00;;;0.60;;
18334;SDS011;9293;49.524;10.964;2023-11-19T12:13:43;1.75;;;0.65;;
18334;SDS011;9293;49.524;10.964;2023-11-19T12:16:26;2.95;;;0.50;;
18334;SDS011;9293;49.524;10.964;2023-11-19T12:18:56;2.78;;;0.75;;
18334;SDS011;9293;49.524;10.964;2023-11-19T12:21:28;1.77;;;0.70;;
18334;SDS011;9293;49.524;10.964;2023-11-19T12:23:58;3.20;;;0.68;;
18334;SDS011;9293;49.524;10.964;2023-11-19T12:26:32;2.75;;;0.75;;
18334;SDS011;9293;49.524;10.964;2023-11-19T12:29:02;2.75;;;0.80;;
18334;SDS011;9293;49.524;10.964;2023-11-19T12:31:35;5.28;;;0.90;;
18334;SDS011;9293;49.524;10.964;2023-11-19T12:34:07;2.55;;;0.80;;
18334;SDS011;9293;49.524;10.964;2023-11-19T12:36:39;2.17;;;0.77;;
18334;SDS011;9293;49.524;10.964;2023-11-19T12:39:09;2.00;;;1.00;;
18334;SDS011;9293;49.524;10.964;2023-11-19T12:41:50;3.45;;;1.00;;
18334;SDS011;9293;49.524;10.964;2023-11-19T12:44:19;2.70;;;1.17;;
18334;SDS011;9293;49.524;10.964;2023-11-19T12:46:58;2.83;;;0.82;;
18334;SDS011;9293;49.524;10.964;2023-11-19T12:49:30;1.80;;;0.60;;
18334;SDS011;9293;49.524;10.964;2023-11-19T12:51:58;2.05;;;0.65;;
18334;SDS011;9293;49.524;10.964;2023-11-19T12:54:34;3.60;;;0.80;;
18334;SDS011;9293;49.524;10.964;2023-11-19T12:57:09;2.03;;;0.80;;
18334;SDS011;9293;49.524;10.964;2023-11-19T12:59:38;2.22;;;0.63;;
18334;SDS011;9293;49.524;10.964;2023-11-19T13:02:06;3.83;;;1.17;;
18334;SDS011;9293;49.524;10.964;2023-11-19T13:04:36;1.90;;;0.88;;
18334;SDS011;9293;49.524;10.964;2023-11-19T13:07:05;2.05;;;0.95;;
18334;SDS011;9293;49.524;10.964;2023-11-19T13:09:33;5.25;;;1.00;;
18334;SDS011;9293;49.524;10.964;2023-11-19T13:12:11;4.97;;;0.75;;
18334;SDS011;9293;49.524;10.964;2023-11-19T13:14:42;3.43;;;0.73;;
18334;SDS011;9293;49.524;10.964;2023-11-19T13:17:12;2.70;;;0.68;;
18334;SDS011;9293;49.524;10.964;2023-11-19T13:19:42;1.40;;;0.68;;
18334;SDS011;9293;49.524;10.964;2023-11-19T13:22:10;2.20;;;0.60;;
18334;SDS011;9293;49.524;10.964;2023-11-19T13:24:39;2.20;;;0.50;;
18334;SDS011;9293;49.524;10.964;2023-11-19T13:27:08;3.33;;;0.95;;
18334;SDS011;9293;49.524;10.964;2023-11-19T13:29:36;3.08;;;1.00;;
18334;SDS011;9293;49.524;10.964;2023-11-19T13:32:04;1.63;;;0.68;;
18334;SDS011;9293;49.524;10.964;2023-11-19T13:34:33;2.72;;;0.60;;
18334;SDS011;9293;49.524;10.964;2023-11-19T13:37:01;2.83;;;0.60;;
18334;SDS011;9293;49.524;10.964;2023-11-19T13:39:30;1.63;;;0.60;;
18334;SDS011;9293;49.524;10.964;2023-11-19T13:41:59;2.33;;;0.60;;
18334;SDS011;9293;49.524;10.964;2023-11-19T13:44:31;2.67;;;1.05;;
18334;SDS011;9293;49.524;10.964;2023-11-19T13:47:03;1.92;;;0.65;;
18334;SDS011;9293;49.524;10.964;2023-11-19T13:49:31;1.60;;;0.70;;
18334;SDS011;9293;49.524;10.964;2023-11-19T13:52:01;2.10;;;0.60;;
18334;SDS011;9293;49.524;10.964;2023-11-19T13:54:29;1.52;;;0.55;;
18334;SDS011;9293;49.524;10.964;2023-11-19T13:56:58;1.48;;;0.70;;
18334;SDS011;9293;49.524;10.964;2023-11-19T13:59:26;1.48;;;0.60;;
18334;SDS011;9293;49.524;10.964;2023-11-19T14:01:54;2.80;;;0.68;;
18334;SDS011;9293;49.524;10.964;2023-11-19T14:04:23;2.80;;;0.80;;
18334;SDS011;9293;49.524;10.964;2023-11-19T14:06:51;3.10;;;0.75;;
18334;SDS011;9293;49.524;10.964;2023-11-19T14:09:20;2.28;;;0.77;;
18334;SDS011;9293;49.524;10.964;2023-11-19T14:11:51;2.60;;;0.90;;
18334;SDS011;9293;49.524;10.964;2023-11-19T14:14:22;1.67;;;0.70;;
18334;SDS011;9293;49.524;10.964;2023-11-19T14:16:50;2.15;;;0.60;;
18334;SDS011;9293;49.524;10.964;2023-11-19T14:19:19;2.03;;;0.60;;
18334;SDS011;9293;49.524;10.964;2023-11-19T14:21:48;2.50;;;0.88;;
18334;SDS011;9293;49.524;10.964;2023-11-19T14:24:16;6.95;;;0.77;;
18334;SDS011;9293;49.524;10.964;2023-11-19T14:26:45;2.40;;;0.55;;
18334;SDS011;9293;49.524;10.964;2023-11-19T14:29:14;3.25;;;1.13;;
18334;SDS011;9293;49.524;10.964;2023-11-19T14:31:43;2.42;;;0.68;;
18334;SDS011;9293;49.524;10.964;2023-11-19T14:34:11;1.50;;;0.50;;
18334;SDS011;9293;49.524;10.964;2023-11-19T14:36:39;2.13;;;0.65;;
18334;SDS011;9293;49.524;10.964;2023-11-19T14:39:07;2.15;;;0.70;;
18334;SDS011;9293;49.524;10.964;2023-11-19T14:41:36;1.42;;;0.65;;
18334;SDS011;9293;49.524;10.964;2023-11-19T14:44:04;3.60;;;0.73;;
18334;SDS011;9293;49.524;10.964;2023-11-19T14:46:33;3.90;;;1.00;;
18334;SDS011;9293;49.524;10.964;2023-11-19T14:49:01;3.42;;;1.30;;
18334;SDS011;9293;49.524;10.964;2023-11-19T14:51:31;3.88;;;0.70;;
18334;SDS011;9293;49.524;10.964;2023-11-19T14:53:59;4.35;;;1.17;;
18334;SDS011;9293;49.524;10.964;2023-11-19T14:56:28;1.13;;;0.40;;
18334;SDS011;9293;49.524;10.964;2023-11-19T14:58:56;2.25;;;0.80;;
18334;SDS011;9293;49.524;10.964;2023-11-19T15:01:24;3.40;;;0.80;;
18334;SDS011;9293;49.524;10.964;2023-11-19T15:03:53;4.07;;;0.85;;
18334;SDS011;9293;49.524;10.964;2023-11-19T15:06:25;4.25;;;0.90;;
18334;SDS011;9293;49.524;10.964;2023-11-19T15:08:55;2.10;;;0.70;;
18334;SDS011;9293;49.524;10.964;2023-11-19T15:11:23;1.67;;;0.70;;
18334;SDS011;9293;49.524;10.964;2023-11-19T15:13:51;3.17;;;0.80;;
18334;SDS011;9293;49.524;10.964;2023-11-19T15:16:20;7.07;;;0.73;;
18334;SDS011;9293;49.524;10.964;2023-11-19T15:18:53;1.67;;;0.80;;
18334;SDS011;9293;49.524;10.964;2023-11-19T15:21:21;4.20;;;0.85;;
18334;SDS011;9293;49.524;10.964;2023-11-19T15:23:50;3.70;;;0.90;;
18334;SDS011;9293;49.524;10.964;2023-11-19T15:26:19;1.95;;;0.93;;
18334;SDS011;9293;49.524;10.964;2023-11-19T15:28:48;3.03;;;1.17;;
18334;SDS011;9293;49.524;10.964;2023-11-19T15:31:16;3.70;;;0.80;;
18334;SDS011;9293;49.524;10.964;2023-11-19T15:33:45;2.33;;;0.60;;
18334;SDS011;9293;49.524;10.964;2023-11-19T15:36:14;1.23;;;0.82;;
18334;SDS011;9293;49.524;10.964;2023-11-19T15:38:43;8.05;;;3.55;;